Time;durP1;ratioP1;P1;durP2;ratioP2;P2;SDS_P1;SDS_P2;PMS_P1;PMS_P2;Temp;Humidity;BMP_temperature;BMP_pressure;BME280_temperature;BME280_humidity;BME280_pressure;Samples;Min_cycle;Max_cycle;Signal;HPM_P1;HPM_P2
2024/04/08 00:00:28;;;;;;;0.20;0.20;;;13.70;1.00;;;;;;5081621;28;20063;-87
2024/04/08 00:02:54;;;;;;;0.20;0.20;;;13.70;1.00;;;;;;5081688;28;21224;-87
2024/04/08 00:05:20;;;;;;;0.10;0.10;;;13.70;1.00;;;;;;5086615;28;20044;-87
2024/04/08 00:07:46;;;;;;;0.15;0.15;;;13.70;1.00;;;;;;5078376;28;20052;-87
2024/04/08 00:10:13;;;;;;;0.10;0.10;;;13.60;1.00;;;;;;5114213;27;20275;-86
2024/04/08 00:12:39;;;;;;;0.20;0.20;;;13.60;1.00;;;;;;5083465;28;20101;-87
2024/04/08 00:15:06;;;;;;;0.10;0.10;;;13.60;1.00;;;;;;5098586;28;20437;-87
2024/04/08 00:17:32;;;;;;;0.17;0.17;;;13.60;1.00;;;;;;5095172;28;20115;-87
2024/04/08 00:19:58;;;;;;;0.17;0.17;;;13.60;1.00;;;;;;5090470;28;20615;-87
2024/04/08 00:22:23;;;;;;;0.10;0.10;;;13.50;1.00;;;;;;5082514;28;20119;-86
2024/04/08 00:24:53;;;;;;;0.10;0.10;;;13.50;1.00;;;;;;5104266;28;20046;-87
2024/04/08 00:27:18;;;;;;;0.10;0.10;;;13.50;1.00;;;;;;5113979;27;20064;-87
2024/04/08 00:29:44;;;;;;;0.10;0.10;;;13.50;1.00;;;;;;5090425;28;20056;-87
2024/04/08 00:32:10;;;;;;;0.10;0.10;;;13.50;1.00;;;;;;5079507;28;20049;-86
2024/04/08 00:34:36;;;;;;;0.10;0.10;;;13.50;1.00;;;;;;5078788;28;20041;-86
2024/04/08 00:37:01;;;;;;;0.20;0.20;;;13.50;1.00;;;;;;5086643;28;20080;-87
2024/04/08 00:39:27;;;;;;;0.10;0.10;;;13.40;1.00;;;;;;5080135;28;20048;-86
2024/04/08 00:41:52;;;;;;;0.10;0.10;;;13.40;1.00;;;;;;5088877;28;20130;-86
2024/04/08 00:44:18;;;;;;;0.10;0.10;;;13.40;1.00;;;;;;5091807;28;20040;-85
2024/04/08 00:46:46;;;;;;;0.10;0.10;;;13.40;1.00;;;;;;5080768;28;20132;-87
2024/04/08 00:49:13;;;;;;;0.10;0.10;;;13.40;1.00;;;;;;5083030;28;20040;-86
2024/04/08 00:51:42;;;;;;;0.10;0.10;;;13.50;1.00;;;;;;5085143;28;20050;-85
2024/04/08 00:54:07;;;;;;;0.20;0.20;;;13.40;1.00;;;;;;5091267;28;20048;-86
2024/04/08 00:56:33;;;;;;;0.10;0.10;;;13.40;1.00;;;;;;5084088;28;20087;-86
2024/04/08 00:58:59;;;;;;;0.10;0.10;;;13.30;1.00;;;;;;5074993;28;20040;-86
2024/04/08 01:01:24;;;;;;;0.10;0.10;;;13.40;1.00;;;;;;5100409;28;20109;-87
2024/04/08 01:03:53;;;;;;;0.10;0.10;;;13.30;1.00;;;;;;5069950;28;20093;-86
2024/04/08 01:06:19;;;;;;;0.10;0.10;;;13.30;1.00;;;;;;5086498;28;20536;-86
2024/04/08 01:08:45;;;;;;;0.13;0.13;;;13.30;1.00;;;;;;5080551;28;20033;-86
2024/04/08 01:11:11;;;;;;;0.10;0.10;;;13.30;1.00;;;;;;5098104;27;20105;-84
2024/04/08 01:13:37;;;;;;;0.15;0.15;;;13.30;1.00;;;;;;5077924;28;20036;-86
2024/04/08 01:16:03;;;;;;;0.10;0.10;;;13.20;1.00;;;;;;5089176;28;20043;-85
2024/04/08 01:18:29;;;;;;;0.10;0.10;;;13.20;1.00;;;;;;5083229;28;20036;-85
2024/04/08 01:20:55;;;;;;;0.10;0.10;;;13.20;1.00;;;;;;5070807;28;20048;-86
2024/04/08 01:23:23;;;;;;;0.17;0.17;;;13.20;1.00;;;;;;5116460;27;20571;-85
2024/04/08 01:25:49;;;;;;;0.10;0.10;;;13.20;1.00;;;;;;5079192;28;20043;-86
2024/04/08 01:28:15;;;;;;;0.10;0.10;;;13.20;1.00;;;;;;5068512;28;20044;-86
2024/04/08 01:30:42;;;;;;;0.10;0.10;;;13.20;1.00;;;;;;5086789;28;20048;-87
2024/04/08 01:33:08;;;;;;;0.10;0.10;;;13.20;1.00;;;;;;5073401;28;20053;-86
2024/04/08 01:35:33;;;;;;;0.10;0.10;;;13.20;1.00;;;;;;5072134;28;20055;-86
2024/04/08 01:37:59;;;;;;;0.10;0.10;;;13.20;1.00;;;;;;5078139;28;20040;-87
2024/04/08 01:40:25;;;;;;;0.10;0.10;;;13.20;1.00;;;;;;5082010;28;20078;-86
2024/04/08 01:42:50;;;;;;;0.10;0.10;;;13.20;1.00;;;;;;5134458;27;20055;-88
2024/04/08 01:45:16;;;;;;;0.10;0.10;;;13.20;1.00;;;;;;5086625;28;20048;-86
2024/04/08 01:47:41;;;;;;;0.10;0.10;;;13.20;1.00;;;;;;5081835;28;20063;-87
2024/04/08 01:50:07;;;;;;;0.10;0.10;;;13.20;1.00;;;;;;5079596;28;20063;-85
2024/04/08 01:52:33;;;;;;;0.20;0.20;;;13.20;1.00;;;;;;5076058;28;20045;-86
2024/04/08 01:54:58;;;;;;;0.20;0.20;;;13.20;1.00;;;;;;5076345;28;20415;-87
2024/04/08 01:57:24;;;;;;;0.10;0.10;;;13.10;1.00;;;;;;5078378;28;20475;-86
2024/04/08 01:59:49;;;;;;;0.10;0.10;;;13.10;1.00;;;;;;5080843;28;20041;-86
2024/04/08 02:02:15;;;;;;;0.10;0.10;;;13.10;1.00;;;;;;5081547;28;20028;-86
2024/04/08 02:04:41;;;;;;;0.10;0.10;;;13.10;1.00;;;;;;5074625;28;20467;-86
2024/04/08 02:07:06;;;;;;;0.20;0.20;;;13.10;1.00;;;;;;5080297;28;20128;-86
2024/04/08 02:09:32;;;;;;;0.10;0.10;;;13.10;1.00;;;;;;5074757;28;20052;-86
2024/04/08 02:11:57;;;;;;;0.10;0.10;;;13.10;1.00;;;;;;5071589;28;20487;-87
2024/04/08 02:14:23;;;;;;;0.10;0.10;;;13.10;1.00;;;;;;5076612;28;20051;-87
2024/04/08 02:16:49;;;;;;;0.10;0.10;;;13.10;1.00;;;;;;5078050;28;20067;-87
2024/04/08 02:19:14;;;;;;;0.20;0.20;;;13.10;1.00;;;;;;5072572;28;20036;-86
2024/04/08 02:21:40;;;;;;;0.10;0.10;;;13.10;1.00;;;;;;5086465;28;20047;-85
2024/04/08 02:24:07;;;;;;;0.10;0.10;;;13.10;1.00;;;;;;5075347;28;20035;-87
2024/04/08 02:26:33;;;;;;;0.20;0.20;;;13.10;1.00;;;;;;5075705;28;20739;-85
2024/04/08 02:28:58;;;;;;;0.10;0.10;;;13.10;1.00;;;;;;5075842;28;20054;-87
2024/04/08 02:31:24;;;;;;;0.10;0.10;;;13.10;1.00;;;;;;5087362;28;20051;-85
2024/04/08 02:33:50;;;;;;;0.10;0.10;;;13.10;1.00;;;;;;5074877;28;20082;-87
2024/04/08 02:36:16;;;;;;;0.10;0.10;;;13.10;1.00;;;;;;5077710;28;20117;-86
2024/04/08 02:38:42;;;;;;;0.10;0.10;;;13.00;1.00;;;;;;5074159;28;20791;-87
2024/04/08 02:41:07;;;;;;;0.10;0.10;;;13.00;1.00;;;;;;5079151;28;20056;-86
2024/04/08 02:43:33;;;;;;;0.10;0.10;;;13.00;1.00;;;;;;5078984;28;20101;-86
2024/04/08 02:45:59;;;;;;;0.20;0.20;;;13.10;1.00;;;;;;5078972;28;20048;-86
2024/04/08 02:48:24;;;;;;;0.10;0.10;;;13.00;1.00;;;;;;5073649;28;20037;-87
2024/04/08 02:50:51;;;;;;;0.10;0.10;;;13.00;1.00;;;;;;5081350;28;20425;-86
2024/04/08 02:53:17;;;;;;;0.10;0.10;;;13.00;1.00;;;;;;5074678;28;20132;-84
2024/04/08 02:55:43;;;;;;;0.15;0.15;;;13.10;1.00;;;;;;5111118;27;20127;-84
2024/04/08 02:58:08;;;;;;;0.10;0.10;;;13.10;1.00;;;;;;5109149;27;20062;-85
2024/04/08 03:00:38;;;;;;;0.20;0.20;;;13.10;1.00;;;;;;5076031;28;20043;-86
2024/04/08 03:03:05;;;;;;;0.10;0.10;;;13.20;1.00;;;;;;5109364;27;20060;-85
2024/04/08 03:05:30;;;;;;;0.20;0.20;;;13.20;1.00;;;;;;5082334;28;20048;-86
2024/04/08 03:07:56;;;;;;;0.20;0.20;;;13.10;1.00;;;;;;5108410;27;20475;-85
2024/04/08 03:10:22;;;;;;;0.20;0.20;;;13.20;1.00;;;;;;5077145;28;20040;-85
2024/04/08 03:12:48;;;;;;;0.20;0.20;;;13.10;1.00;;;;;;5076973;28;20040;-84
2024/04/08 03:15:14;;;;;;;0.10;0.10;;;13.10;1.00;;;;;;5085226;28;20510;-85
2024/04/08 03:17:40;;;;;;;0.10;0.10;;;13.20;1.00;;;;;;5086809;28;20044;-85
2024/04/08 03:20:06;;;;;;;0.20;0.20;;;13.30;1.00;;;;;;5071689;28;20465;-85
2024/04/08 03:22:32;;;;;;;0.10;0.10;;;13.20;1.00;;;;;;5073167;28;20932;-85
2024/04/08 03:24:57;;;;;;;0.10;0.10;;;13.30;1.00;;;;;;5077906;28;20123;-85
2024/04/08 03:27:23;;;;;;;0.20;0.20;;;13.30;1.00;;;;;;5090975;28;20122;-85
2024/04/08 03:29:52;;;;;;;0.10;0.10;;;13.30;1.00;;;;;;5076319;28;20082;-86
2024/04/08 03:32:17;;;;;;;0.10;0.10;;;13.30;1.00;;;;;;5073275;28;20256;-85
2024/04/08 03:34:43;;;;;;;0.20;0.20;;;13.30;1.00;;;;;;5074719;28;20429;-85
2024/04/08 03:37:09;;;;;;;0.10;0.10;;;13.30;1.00;;;;;;5075740;28;20048;-86
2024/04/08 03:39:35;;;;;;;0.10;0.10;;;13.30;1.00;;;;;;5108010;27;20052;-85
2024/04/08 03:42:01;;;;;;;0.20;0.20;;;13.30;1.00;;;;;;5074676;28;20110;-85
2024/04/08 03:44:26;;;;;;;0.20;0.20;;;13.30;1.00;;;;;;5079812;28;20107;-86
2024/04/08 03:46:52;;;;;;;0.10;0.10;;;13.30;1.00;;;;;;5105771;28;20127;-85
2024/04/08 03:49:17;;;;;;;0.10;0.10;;;13.40;1.00;;;;;;5074277;28;20139;-86
2024/04/08 03:51:45;;;;;;;0.10;0.10;;;13.40;1.00;;;;;;5072857;28;20044;-86
2024/04/08 03:54:10;;;;;;;0.10;0.10;;;13.40;1.00;;;;;;5071514;28;20510;-85
2024/04/08 03:56:36;;;;;;;0.10;0.10;;;13.30;1.00;;;;;;5081996;28;20044;-85
2024/04/08 03:59:02;;;;;;;0.13;0.13;;;13.40;1.00;;;;;;5080335;28;20052;-86
2024/04/08 04:01:27;;;;;;;0.10;0.10;;;13.30;1.00;;;;;;5078782;28;20080;-86
2024/04/08 04:03:53;;;;;;;0.10;0.10;;;13.40;1.00;;;;;;5084028;28;20044;-85
2024/04/08 04:06:18;;;;;;;0.20;0.20;;;13.40;1.00;;;;;;5079701;28;20396;-84
2024/04/08 04:08:44;;;;;;;0.13;0.13;;;13.40;1.00;;;;;;5088129;28;20414;-85
2024/04/08 04:11:10;;;;;;;0.20;0.20;;;13.40;1.00;;;;;;5085523;28;20449;-84
2024/04/08 04:13:36;;;;;;;0.10;0.10;;;13.40;1.00;;;;;;5079350;28;20440;-86
2024/04/08 04:16:05;;;;;;;0.10;0.10;;;13.30;1.00;;;;;;5077205;28;20171;-85
2024/04/08 04:18:32;;;;;;;0.10;0.10;;;13.40;1.00;;;;;;5078342;28;20032;-85
2024/04/08 04:20:57;;;;;;;0.17;0.17;;;13.30;1.00;;;;;;5080068;28;20573;-83
2024/04/08 04:23:23;;;;;;;0.20;0.20;;;13.40;1.00;;;;;;5075472;28;20031;-85
2024/04/08 04:25:53;;;;;;;0.20;0.20;;;13.40;1.00;;;;;;5078541;28;20047;-85
2024/04/08 04:28:20;;;;;;;0.20;0.20;;;13.40;1.00;;;;;;5077883;28;20036;-84
2024/04/08 04:30:56;;;;;;;0.10;0.10;;;13.30;1.00;;;;;;5078087;28;20064;-85
2024/04/08 04:33:22;;;;;;;0.20;0.20;;;13.40;1.00;;;;;;5077455;28;20377;-85
2024/04/08 04:35:54;;;;;;;0.10;0.10;;;13.40;1.00;;;;;;5085920;28;20078;-85
2024/04/08 04:38:20;;;;;;;0.13;0.13;;;13.40;1.00;;;;;;5081922;28;20056;-85
2024/04/08 04:40:46;;;;;;;0.10;0.10;;;13.30;1.00;;;;;;5076810;28;20052;-85
2024/04/08 04:43:12;;;;;;;0.13;0.13;;;13.40;1.00;;;;;;5114269;27;20044;-85
2024/04/08 04:45:37;;;;;;;0.17;0.17;;;13.40;1.00;;;;;;5078487;28;20057;-84
2024/04/08 04:48:03;;;;;;;0.10;0.10;;;13.40;1.00;;;;;;5079114;28;20048;-85
2024/04/08 04:50:31;;;;;;;0.20;0.20;;;13.40;1.00;;;;;;5075611;28;20495;-85
2024/04/08 04:52:57;;;;;;;0.20;0.20;;;13.40;1.00;;;;;;5077714;28;20462;-85
2024/04/08 04:55:23;;;;;;;0.10;0.10;;;13.40;1.00;;;;;;5079040;28;20052;-87
2024/04/08 04:57:49;;;;;;;0.10;0.10;;;13.40;1.00;;;;;;5085148;28;20452;-85
2024/04/08 05:00:15;;;;;;;0.20;0.20;;;13.40;1.00;;;;;;5086518;28;20083;-86
2024/04/08 05:02:42;;;;;;;0.20;0.20;;;13.40;1.00;;;;;;5114003;27;20320;-86
2024/04/08 05:05:08;;;;;;;0.10;0.10;;;13.40;1.00;;;;;;5083184;28;20056;-86
2024/04/08 05:07:34;;;;;;;0.20;0.20;;;13.40;1.00;;;;;;5074691;28;20048;-86
2024/04/08 05:10:00;;;;;;;0.10;0.10;;;13.40;1.00;;;;;;5076120;28;20083;-86
2024/04/08 05:12:25;;;;;;;0.10;0.10;;;13.40;1.00;;;;;;5079110;28;20050;-86
2024/04/08 05:14:51;;;;;;;0.13;0.13;;;13.40;1.00;;;;;;5092354;28;20050;-86
2024/04/08 05:17:16;;;;;;;0.10;0.10;;;13.50;1.00;;;;;;5079989;28;20131;-86
2024/04/08 05:19:42;;;;;;;0.10;0.10;;;13.50;1.00;;;;;;5076656;28;20045;-85
2024/04/08 05:22:15;;;;;;;0.13;0.13;;;13.50;1.00;;;;;;5075978;28;20040;-87
2024/04/08 05:24:41;;;;;;;0.10;0.10;;;13.50;1.00;;;;;;5072602;28;20059;-88
2024/04/08 05:27:07;;;;;;;0.10;0.10;;;13.50;1.00;;;;;;5078029;28;20056;-86
2024/04/08 05:29:32;;;;;;;0.17;0.17;;;13.50;1.00;;;;;;5077685;28;20036;-86
2024/04/08 05:31:58;;;;;;;0.13;0.13;;;13.60;1.00;;;;;;5070454;28;20414;-86
2024/04/08 05:34:24;;;;;;;0.10;0.10;;;13.60;1.00;;;;;;5086031;28;20063;-86
2024/04/08 05:36:50;;;;;;;0.10;0.10;;;13.60;1.00;;;;;;5079877;28;20481;-86
2024/04/08 05:39:15;;;;;;;0.10;0.10;;;13.50;1.00;;;;;;5076103;28;20040;-87
2024/04/08 05:41:41;;;;;;;0.15;0.15;;;13.60;1.00;;;;;;5079533;28;20055;-85
2024/04/08 05:44:07;;;;;;;0.10;0.10;;;13.60;1.00;;;;;;5075477;28;20055;-85
2024/04/08 05:46:33;;;;;;;0.20;0.20;;;13.60;1.00;;;;;;5079054;28;20044;-87
2024/04/08 05:48:58;;;;;;;0.10;0.10;;;13.60;1.00;;;;;;5076143;28;20046;-85
2024/04/08 05:51:26;;;;;;;0.20;0.20;;;13.60;1.00;;;;;;5077094;28;20135;-86
2024/04/08 05:53:52;;;;;;;0.10;0.10;;;13.60;1.00;;;;;;5107982;27;20123;-85
2024/04/08 05:56:19;;;;;;;0.20;0.20;;;13.60;1.00;;;;;;5092541;28;20554;-85
2024/04/08 05:58:45;;;;;;;0.20;0.20;;;13.60;1.00;;;;;;5072688;28;20060;-85
2024/04/08 06:01:11;;;;;;;0.10;0.10;;;13.60;1.00;;;;;;5101852;28;20039;-84
2024/04/08 06:03:36;;;;;;;0.20;0.20;;;13.70;1.00;;;;;;5085580;28;20055;-85
2024/04/08 06:06:06;;;;;;;0.20;0.20;;;13.70;1.00;;;;;;5084187;28;20498;-84
2024/04/08 06:08:32;;;;;;;0.10;0.10;;;13.70;1.00;;;;;;5077700;28;20097;-84
2024/04/08 06:11:04;;;;;;;0.10;0.10;;;13.70;1.00;;;;;;5074698;28;20048;-85
2024/04/08 06:13:30;;;;;;;0.10;0.10;;;13.70;1.00;;;;;;5075492;28;20028;-85
2024/04/08 06:15:57;;;;;;;0.20;0.20;;;13.70;1.00;;;;;;5086681;28;20472;-85
2024/04/08 06:18:23;;;;;;;0.10;0.10;;;13.70;1.00;;;;;;5083057;28;20054;-82
2024/04/08 06:20:56;;;;;;;0.20;0.20;;;13.80;1.00;;;;;;5116938;27;21608;-84
2024/04/08 06:23:21;;;;;;;0.20;0.20;;;13.80;1.00;;;;;;5075903;28;20041;-84
2024/04/08 06:25:56;;;;;;;0.15;0.15;;;13.80;1.00;;;;;;5075263;28;20048;-84
2024/04/08 06:28:22;;;;;;;0.10;0.10;;;13.90;1.00;;;;;;5085282;28;20054;-84
2024/04/08 06:30:47;;;;;;;0.20;0.20;;;13.90;1.00;;;;;;5085360;28;20056;-84
2024/04/08 06:33:13;;;;;;;0.20;0.20;;;13.90;1.00;;;;;;5082389;28;20055;-81
2024/04/08 06:35:43;;;;;;;0.10;0.10;;;13.90;1.00;;;;;;5096927;28;20130;-85
2024/04/08 06:38:08;;;;;;;0.10;0.10;;;14.00;1.00;;;;;;5111107;27;20039;-82
2024/04/08 06:40:34;;;;;;;0.10;0.10;;;14.00;1.00;;;;;;5078411;28;20039;-83
2024/04/08 06:42:59;;;;;;;0.17;0.17;;;14.10;1.00;;;;;;5077651;28;20039;-83
2024/04/08 06:45:25;;;;;;;0.10;0.10;;;14.10;1.00;;;;;;5088461;28;20035;-84
2024/04/08 06:47:52;;;;;;;0.20;0.20;;;14.20;1.00;;;;;;5074807;28;20032;-83
2024/04/08 06:50:17;;;;;;;0.10;0.10;;;14.20;1.00;;;;;;5103512;27;20101;-83
2024/04/08 06:52:43;;;;;;;0.10;0.10;;;14.30;1.00;;;;;;5105407;27;20048;-79
2024/04/08 06:55:09;;;;;;;0.10;0.10;;;14.30;1.00;;;;;;5075993;28;20056;-84
2024/04/08 06:57:35;;;;;;;0.10;0.10;;;14.40;1.00;;;;;;5068147;28;20040;-83
2024/04/08 07:00:01;;;;;;;0.15;0.15;;;14.30;1.00;;;;;;5066964;28;20059;-83
2024/04/08 07:02:27;;;;;;;0.10;0.10;;;14.30;1.00;;;;;;5084741;28;20450;-84
2024/04/08 07:04:52;;;;;;;0.10;0.10;;;14.40;1.00;;;;;;5086536;28;20630;-83
2024/04/08 07:07:18;;;;;;;0.20;0.20;;;14.40;1.00;;;;;;5076740;28;20075;-83
2024/04/08 07:09:43;;;;;;;0.20;0.20;;;14.30;1.00;;;;;;5067827;28;20131;-83
2024/04/08 07:12:09;;;;;;;0.10;0.10;;;14.30;1.00;;;;;;5097357;27;20127;-84
2024/04/08 07:14:34;;;;;;;0.20;0.20;;;14.30;1.00;;;;;;5068496;28;20055;-83
2024/04/08 07:17:00;;;;;;;0.20;0.20;;;14.30;1.00;;;;;;5081927;28;20043;-84
2024/04/08 07:19:26;;;;;;;0.10;0.10;;;14.30;1.00;;;;;;5120278;27;20093;-84
2024/04/08 07:21:51;;;;;;;0.10;0.10;;;14.20;1.00;;;;;;5087170;28;20044;-86
2024/04/08 07:24:17;;;;;;;0.10;0.10;;;14.30;1.00;;;;;;5088951;28;20044;-84
2024/04/08 07:26:45;;;;;;;0.17;0.17;;;14.30;1.00;;;;;;5072810;28;20496;-85
2024/04/08 07:29:11;;;;;;;0.20;0.20;;;14.30;1.00;;;;;;5076024;28;20588;-85
2024/04/08 07:31:37;;;;;;;0.20;0.20;;;14.30;1.00;;;;;;5088071;28;20044;-83
2024/04/08 07:34:02;;;;;;;0.10;0.10;;;14.30;1.00;;;;;;5097025;27;20044;-85
2024/04/08 07:36:28;;;;;;;0.20;0.20;;;14.30;1.00;;;;;;5087692;28;20115;-85
2024/04/08 07:38:54;;;;;;;0.10;0.10;;;14.30;1.00;;;;;;5072227;28;20098;-83
2024/04/08 07:41:19;;;;;;;0.10;0.10;;;14.20;1.00;;;;;;5086294;28;20395;-84
2024/04/08 07:43:46;;;;;;;0.10;0.10;;;14.20;1.00;;;;;;5073018;28;20496;-83
2024/04/08 07:46:12;;;;;;;0.20;0.20;;;14.30;1.00;;;;;;5113892;27;20040;-83
2024/04/08 07:48:37;;;;;;;0.10;0.10;;;14.30;1.00;;;;;;5078177;28;20105;-82
2024/04/08 07:51:03;;;;;;;0.20;0.20;;;14.30;1.00;;;;;;5115890;27;20191;-82
2024/04/08 07:53:29;;;;;;;0.10;0.10;;;14.40;1.00;;;;;;5082203;28;20048;-83
2024/04/08 07:55:54;;;;;;;0.15;0.15;;;14.40;1.00;;;;;;5074593;28;20133;-83
2024/04/08 07:58:20;;;;;;;0.20;0.20;;;14.50;1.00;;;;;;5107347;28;20085;-83
2024/04/08 08:01:07;;;;;;;0.20;0.20;;;14.50;1.00;;;;;;5070729;28;20101;-83
2024/04/08 08:03:34;;;;;;;0.20;0.20;;;14.70;1.00;;;;;;5069489;28;20063;-83
2024/04/08 08:05:59;;;;;;;0.20;0.20;;;14.80;1.00;;;;;;5072482;28;20040;-83
2024/04/08 08:08:25;;;;;;;0.10;0.10;;;14.80;1.00;;;;;;5070948;28;20392;-84
2024/04/08 08:10:51;;;;;;;0.10;0.10;;;14.90;1.00;;;;;;5070166;28;20041;-84
2024/04/08 08:13:17;;;;;;;0.17;0.17;;;15.00;1.00;;;;;;5072658;28;20103;-83
2024/04/08 08:15:43;;;;;;;0.20;0.20;;;15.10;1.00;;;;;;5071434;28;20494;-83
2024/04/08 08:18:08;;;;;;;0.20;0.20;;;15.20;1.00;;;;;;5070637;28;20044;-83
2024/04/08 08:20:34;;;;;;;0.20;0.20;;;15.20;1.00;;;;;;5072138;28;20037;-83
2024/04/08 08:23:00;;;;;;;0.30;0.30;;;15.20;1.00;;;;;;5072424;28;20416;-83
2024/04/08 08:25:29;;;;;;;0.10;0.10;;;15.30;1.00;;;;;;5089936;28;20056;-84
2024/04/08 08:27:55;;;;;;;0.10;0.10;;;15.30;1.00;;;;;;5089215;28;20040;-83
2024/04/08 08:30:21;;;;;;;0.20;0.20;;;15.40;1.00;;;;;;5092036;28;20046;-82
2024/04/08 08:32:50;;;;;;;0.10;0.10;;;15.50;1.00;;;;;;5092019;28;20079;-82
2024/04/08 08:35:15;;;;;;;0.10;0.10;;;15.50;1.00;;;;;;5086093;28;20068;-82
2024/04/08 08:37:41;;;;;;;0.10;0.10;;;15.60;1.00;;;;;;5069871;28;20072;-82
2024/04/08 08:40:07;;;;;;;0.10;0.10;;;15.70;1.00;;;;;;5069987;28;20075;-83
2024/04/08 08:42:33;;;;;;;0.20;0.20;;;15.80;1.00;;;;;;5072248;28;20079;-82
2024/04/08 08:45:03;;;;;;;0.20;0.20;;;15.80;1.00;;;;;;5070389;28;20194;-82
2024/04/08 08:47:29;;;;;;;0.10;0.10;;;15.90;1.00;;;;;;5071243;28;20095;-81
2024/04/08 08:49:55;;;;;;;0.20;0.20;;;15.90;1.00;;;;;;5070372;28;20041;-83
2024/04/08 08:52:21;;;;;;;0.17;0.17;;;16.00;1.00;;;;;;5070196;28;20508;-83
2024/04/08 08:54:52;;;;;;;0.20;0.20;;;16.10;1.00;;;;;;5082382;28;20040;-82
2024/04/08 08:57:18;;;;;;;0.20;0.20;;;16.10;1.00;;;;;;5091213;28;20039;-84
2024/04/08 08:59:45;;;;;;;0.10;0.10;;;16.10;1.00;;;;;;5089122;28;20044;-83
2024/04/08 09:02:14;;;;;;;0.20;0.20;;;16.20;1.00;;;;;;5091098;28;20525;-82
2024/04/08 09:04:41;;;;;;;0.20;0.20;;;16.30;1.00;;;;;;5084273;28;20044;-82
2024/04/08 09:07:08;;;;;;;0.20;0.20;;;16.40;1.00;;;;;;5103374;28;20098;-83
2024/04/08 09:09:33;;;;;;;0.20;0.20;;;16.50;1.00;;;;;;5070816;28;20059;-82
2024/04/08 09:11:59;;;;;;;0.30;0.30;;;16.60;1.00;;;;;;5070347;28;20025;-82
2024/04/08 09:14:28;;;;;;;0.20;0.20;;;16.70;1.00;;;;;;5069748;28;20044;-82
2024/04/08 09:17:07;;;;;;;1.23;0.20;;;16.80;1.00;;;;;;5071102;28;20044;-82
2024/04/08 09:19:33;;;;;;;0.10;0.10;;;16.80;1.00;;;;;;5067941;28;20090;-83
2024/04/08 09:21:58;;;;;;;0.10;0.10;;;16.90;1.00;;;;;;5104150;28;20056;-82
2024/04/08 09:24:24;;;;;;;0.20;0.20;;;17.00;1.00;;;;;;5103164;28;20089;-81
2024/04/08 09:26:52;;;;;;;0.17;0.17;;;17.00;1.00;;;;;;5102595;28;20093;-82
2024/04/08 09:29:18;;;;;;;0.20;0.20;;;17.10;1.00;;;;;;5071679;28;20036;-83
2024/04/08 09:31:44;;;;;;;0.20;0.20;;;17.10;1.00;;;;;;5069288;28;20063;-82
2024/04/08 09:34:11;;;;;;;0.15;0.15;;;17.10;1.00;;;;;;5073264;28;20048;-83
2024/04/08 09:36:37;;;;;;;0.20;0.20;;;17.20;1.00;;;;;;5091601;28;20050;-83
2024/04/08 09:39:04;;;;;;;0.10;0.10;;;17.30;1.00;;;;;;5088857;28;20056;-83
2024/04/08 09:41:31;;;;;;;0.20;0.20;;;17.40;1.00;;;;;;5089474;28;20067;-83
2024/04/08 09:43:58;;;;;;;0.10;0.10;;;17.50;1.00;;;;;;5089077;28;20040;-83
2024/04/08 09:46:26;;;;;;;0.20;0.20;;;17.60;1.00;;;;;;5089974;28;20044;-83
2024/04/08 09:48:52;;;;;;;0.20;0.20;;;17.70;1.00;;;;;;5082930;28;20036;-84
2024/04/08 09:51:19;;;;;;;0.10;0.10;;;17.80;1.00;;;;;;5103627;28;20048;-84
2024/04/08 09:53:45;;;;;;;0.20;0.20;;;17.80;1.00;;;;;;5113295;27;20056;-86
2024/04/08 09:56:15;;;;;;;0.13;0.13;;;17.80;1.00;;;;;;5091164;28;20189;-83
2024/04/08 09:58:43;;;;;;;0.20;0.20;;;17.90;1.00;;;;;;5123290;27;20051;-83
2024/04/08 10:01:13;;;;;;;0.20;0.20;;;18.00;1.00;;;;;;5088952;28;20044;-82
2024/04/08 10:03:48;;;;;;;0.20;0.20;;;18.10;1.00;;;;;;5085427;28;20070;-83
2024/04/08 10:06:14;;;;;;;0.17;0.17;;;18.30;1.00;;;;;;5070713;28;20505;-83
2024/04/08 10:08:41;;;;;;;0.10;0.10;;;18.40;1.00;;;;;;5066954;28;20086;-84
2024/04/08 10:11:07;;;;;;;0.20;0.20;;;18.50;1.00;;;;;;5069357;28;20075;-84
2024/04/08 10:13:43;;;;;;;0.10;0.10;;;18.50;1.00;;;;;;5102601;28;20044;-84
2024/04/08 10:16:13;;;;;;;0.20;0.20;;;18.60;1.00;;;;;;5069531;28;20194;-84
2024/04/08 10:18:52;;;;;;;0.10;0.10;;;18.60;1.00;;;;;;5100835;28;20078;-84
2024/04/08 10:21:19;;;;;;;0.20;0.20;;;18.70;1.00;;;;;;5069428;28;20049;-83
2024/04/08 10:23:45;;;;;;;0.10;0.10;;;18.80;1.00;;;;;;5068125;28;20503;-84
2024/04/08 10:26:12;;;;;;;0.13;0.13;;;18.80;1.00;;;;;;5069209;28;20048;-85
2024/04/08 10:28:42;;;;;;;0.20;0.20;;;18.80;1.00;;;;;;5102584;27;20393;-84
2024/04/08 10:31:08;;;;;;;0.20;0.20;;;18.80;1.00;;;;;;5087893;28;20052;-84
2024/04/08 10:33:34;;;;;;;0.20;0.20;;;18.90;1.00;;;;;;5080935;28;20397;-85
2024/04/08 10:36:03;;;;;;;0.20;0.20;;;18.90;1.00;;;;;;5069648;28;20050;-85
2024/04/08 10:38:29;;;;;;;0.20;0.20;;;19.00;1.00;;;;;;5070464;28;20582;-83
2024/04/08 10:40:55;;;;;;;0.20;0.20;;;19.00;1.00;;;;;;5070124;28;20080;-85
2024/04/08 10:43:22;;;;;;;0.20;0.20;;;19.00;1.00;;;;;;5070472;28;20511;-83
2024/04/08 10:47:19;;;;;;;0.20;0.20;;;19.00;1.00;;;;;;5505143;25;20342;-83
2024/04/08 10:49:47;;;;;;;0.20;0.20;;;19.10;1.00;;;;;;5502665;25;20038;-83
2024/04/08 10:52:14;;;;;;;0.20;0.20;;;19.30;1.00;;;;;;5502544;26;20034;-83
2024/04/08 10:54:41;;;;;;;0.20;0.20;;;19.40;1.00;;;;;;5503618;26;20034;-83
2024/04/08 10:57:08;;;;;;;0.40;0.20;;;19.40;1.00;;;;;;5505273;25;20022;-84
2024/04/08 10:59:35;;;;;;;0.10;0.10;;;19.40;1.00;;;;;;5504338;25;20024;-84
2024/04/08 11:02:02;;;;;;;0.20;0.20;;;19.40;1.00;;;;;;5510925;25;20497;-84
2024/04/08 11:04:29;;;;;;;0.20;0.20;;;19.40;1.00;;;;;;5465930;26;20030;-84
2024/04/08 11:06:56;;;;;;;0.10;0.10;;;19.40;1.00;;;;;;5465665;26;20030;-84
2024/04/08 11:09:23;;;;;;;0.20;0.20;;;19.50;1.00;;;;;;5465643;26;20467;-84
2024/04/08 11:11:50;;;;;;;0.20;0.20;;;19.60;1.00;;;;;;5480853;26;20034;-84
2024/04/08 11:14:18;;;;;;;0.20;0.20;;;19.70;1.00;;;;;;5504153;25;20383;-84
2024/04/08 11:16:45;;;;;;;0.10;0.10;;;19.90;1.00;;;;;;5503081;26;20026;-84
2024/04/08 11:19:12;;;;;;;0.10;0.10;;;20.10;1.00;;;;;;5464806;26;20030;-84
2024/04/08 11:21:40;;;;;;;0.20;0.20;;;20.20;1.00;;;;;;5464878;26;20030;-85
2024/04/08 11:24:13;;;;;;;0.20;0.20;;;20.50;1.00;;;;;;5464469;26;20022;-83
2024/04/08 11:26:40;;;;;;;0.13;0.13;;;20.60;1.00;;;;;;5463971;26;20369;-83
2024/04/08 11:29:08;;;;;;;0.20;0.20;;;20.80;1.00;;;;;;5463096;26;20046;-83
2024/04/08 11:31:37;;;;;;;0.20;0.20;;;21.10;1.00;;;;;;5467314;25;20035;-83
2024/04/08 11:34:04;;;;;;;0.20;0.20;;;21.30;1.00;;;;;;5462525;26;20034;-85
2024/04/08 11:36:31;;;;;;;0.20;0.20;;;21.40;1.00;;;;;;5465798;26;20343;-84
2024/04/08 11:38:58;;;;;;;0.20;0.20;;;21.50;1.00;;;;;;5463671;26;19998;-83
2024/04/08 11:41:24;;;;;;;0.20;0.20;;;21.40;1.00;;;;;;5464809;26;20027;-83
2024/04/08 11:43:51;;;;;;;0.20;0.20;;;21.40;1.00;;;;;;5464156;26;20494;-82
2024/04/08 11:46:21;;;;;;;0.20;0.20;;;21.50;1.00;;;;;;5465625;25;20460;-86
2024/04/08 11:48:47;;;;;;;0.20;0.20;;;21.50;1.00;;;;;;5461781;26;20522;-84
2024/04/08 11:51:15;;;;;;;0.20;0.20;;;21.50;1.00;;;;;;5465267;26;20046;-83
2024/04/08 11:53:42;;;;;;;0.20;0.20;;;21.60;1.00;;;;;;5470372;25;20485;-82
2024/04/08 11:56:12;;;;;;;0.20;0.20;;;21.70;1.00;;;;;;5501905;26;20274;-82
2024/04/08 11:58:39;;;;;;;0.10;0.10;;;21.90;1.00;;;;;;5483787;26;20469;-85
2024/04/08 12:01:06;;;;;;;0.20;0.20;;;22.00;1.00;;;;;;5483124;26;20770;-83
2024/04/08 12:03:33;;;;;;;0.20;0.20;;;22.00;1.00;;;;;;5447825;26;20042;-84
2024/04/08 12:06:02;;;;;;;0.20;0.20;;;22.10;1.00;;;;;;5448640;26;19999;-84
2024/04/08 12:08:31;;;;;;;0.20;0.20;;;22.10;1.00;;;;;;5447328;26;20046;-84
2024/04/08 12:10:58;;;;;;;0.20;0.20;;;22.30;1.00;;;;;;5448088;26;20054;-83
2024/04/08 12:13:26;;;;;;;0.20;0.20;;;22.40;1.00;;;;;;5448588;26;20035;-84
2024/04/08 12:15:53;;;;;;;0.20;0.20;;;22.50;1.00;;;;;;5448477;26;20030;-84
2024/04/08 12:18:20;;;;;;;0.20;0.20;;;22.50;1.00;;;;;;5448942;26;20040;-83
2024/04/08 12:20:46;;;;;;;0.30;0.30;;;22.40;1.00;;;;;;5447976;26;20099;-84
2024/04/08 12:23:13;;;;;;;0.20;0.20;;;22.20;1.00;;;;;;5448516;26;20038;-84
2024/04/08 12:25:40;;;;;;;0.10;0.10;;;22.00;1.00;;;;;;5448859;26;20042;-84
2024/04/08 12:28:11;;;;;;;0.20;0.20;;;21.90;1.00;;;;;;5449169;26;20034;-83
2024/04/08 12:30:41;;;;;;;0.20;0.20;;;21.80;1.00;;;;;;5447472;26;20017;-85
2024/04/08 12:33:08;;;;;;;0.20;0.20;;;21.70;1.00;;;;;;5481692;26;20061;-85
2024/04/08 12:35:35;;;;;;;0.20;0.20;;;21.50;1.00;;;;;;5484155;26;20030;-84
2024/04/08 12:38:02;;;;;;;0.17;0.17;;;21.40;1.00;;;;;;5483736;26;20046;-84
2024/04/08 12:40:29;;;;;;;0.30;0.30;;;21.20;1.00;;;;;;5484265;26;20030;-83
2024/04/08 12:42:56;;;;;;;0.15;0.15;;;21.10;1.00;;;;;;5483550;26;20021;-83
2024/04/08 12:45:23;;;;;;;0.20;0.20;;;20.90;1.00;;;;;;5481794;26;20026;-83
2024/04/08 12:47:50;;;;;;;0.20;0.20;;;20.70;1.00;;;;;;5447578;26;20467;-84
2024/04/08 12:50:17;;;;;;;0.20;0.20;;;20.60;1.00;;;;;;5446324;26;20035;-85
2024/04/08 12:52:45;;;;;;;0.20;0.20;;;20.50;1.00;;;;;;5447873;26;20038;-84
2024/04/08 12:55:12;;;;;;;0.20;0.20;;;20.50;1.00;;;;;;5477917;26;20034;-84